createdAt,value
2023-03-21T00:01:51.652Z,57.30
2023-03-21T00:04:20.168Z,57.82
2023-03-21T00:06:47.620Z,57.19
2023-03-21T00:09:15.026Z,56.18
2023-03-21T00:11:42.883Z,56.32
2023-03-21T00:14:14.378Z,54.75
2023-03-21T00:16:45.868Z,55.33
2023-03-21T00:19:14.623Z,56.47
2023-03-21T00:22:05.864Z,55.25
2023-03-21T00:24:31.058Z,54.66
2023-03-21T00:27:12.535Z,54.53
2023-03-21T00:29:49.228Z,55.18
2023-03-21T00:32:20.058Z,55.91
2023-03-21T00:35:01.375Z,56.30
2023-03-21T00:37:36.441Z,56.69
2023-03-21T00:40:16.417Z,56.00
2023-03-21T00:42:55.459Z,56.39
2023-03-21T00:45:23.316Z,56.84
2023-03-21T00:47:50.824Z,55.29
2023-03-21T00:50:18.540Z,55.85
2023-03-21T00:52:46.311Z,56.68
2023-03-21T00:55:15.044Z,56.08
2023-03-21T00:57:45.284Z,55.08
2023-03-21T01:00:20.515Z,54.39
2023-03-21T01:03:14.217Z,54.99
2023-03-21T01:06:04.272Z,54.53
2023-03-21T01:08:53.533Z,53.91
2023-03-21T01:11:24.783Z,53.93
2023-03-21T01:13:59.736Z,53.89
2023-03-21T01:16:32.789Z,54.58
2023-03-21T01:19:01.973Z,55.14
2023-03-21T01:21:30.145Z,54.54
2023-03-21T01:23:57.886Z,53.86
2023-03-21T01:26:25.432Z,53.44
2023-03-21T01:28:52.847Z,53.73
2023-03-21T01:31:20.995Z,54.63
2023-03-21T01:33:48.578Z,54.58
2023-03-21T01:36:23.803Z,54.94
2023-03-21T01:38:53.597Z,56.21
2023-03-21T01:41:42.644Z,55.92
2023-03-21T01:44:16.331Z,55.76
2023-03-21T01:47:09.684Z,54.69
2023-03-21T01:49:41.802Z,56.42
2023-03-21T01:52:20.910Z,55.40
2023-03-21T01:54:49.161Z,55.29
2023-03-21T01:57:27.801Z,56.03
2023-03-21T02:00:12.387Z,56.26
2023-03-21T02:03:11.668Z,56.00
2023-03-21T02:06:01.279Z,56.19
2023-03-21T02:08:39.185Z,57.28
2023-03-21T02:11:10.144Z,57.97
2023-03-21T02:13:38.015Z,58.40
2023-03-21T02:16:31.637Z,58.26
2023-03-21T02:19:10.144Z,57.90
2023-03-21T02:21:40.345Z,57.57
2023-03-21T02:24:33.383Z,57.23
2023-03-21T02:27:18.647Z,56.93
2023-03-21T02:30:20.191Z,58.19
2023-03-21T02:33:11.571Z,58.25
2023-03-21T02:36:02.980Z,58.25
2023-03-21T02:38:43.781Z,59.08
2023-03-21T02:41:21.275Z,58.35
2023-03-21T02:44:14.350Z,59.85
2023-03-21T02:46:59.735Z,59.54
2023-03-21T02:49:49.685Z,59.03
2023-03-21T02:52:39.822Z,58.91
2023-03-21T02:55:14.168Z,59.24
2023-03-21T02:57:44.101Z,58.92
2023-03-21T03:00:33.037Z,58.29
2023-03-21T03:03:33.033Z,58.52
2023-03-21T03:06:03.617Z,58.58
2023-03-21T03:08:56.069Z,57.80
2023-03-21T03:11:42.561Z,58.21
2023-03-21T03:14:38.465Z,59.65
2023-03-21T03:17:11.543Z,59.48
2023-03-21T03:20:04.302Z,57.91
2023-03-21T03:22:46.700Z,58.43
2023-03-21T03:25:29.815Z,57.83
2023-03-21T03:28:06.772Z,57.90
2023-03-21T03:30:44.677Z,57.52
2023-03-21T03:33:44.669Z,57.15
2023-03-21T03:36:30.464Z,56.81
2023-03-21T03:39:12.859Z,57.15
2023-03-21T03:42:15.258Z,57.13
2023-03-21T03:44:51.922Z,56.92
2023-03-21T03:47:50.656Z,57.67
2023-03-21T03:50:31.355Z,57.20
2023-03-21T03:53:18.408Z,59.12
2023-03-21T03:55:49.549Z,58.66
2023-03-21T03:58:24.045Z,58.41
2023-03-21T04:00:55.047Z,59.74
2023-03-21T04:03:23.288Z,60.25
2023-03-21T04:05:51.081Z,61.74
2023-03-21T04:08:18.743Z,60.41
2023-03-21T04:10:46.879Z,59.74
2023-03-21T04:13:14.646Z,59.79
2023-03-21T04:15:44.609Z,60.50
2023-03-21T04:18:12.683Z,59.25
2023-03-21T04:20:40.222Z,59.01
2023-03-21T04:23:07.996Z,59.32
2023-03-21T04:25:44.681Z,61.37
2023-03-21T04:28:18.679Z,60.51
2023-03-21T04:31:01.291Z,59.66
2023-03-21T04:33:31.598Z,61.31
2023-03-21T04:36:00.898Z,59.44
2023-03-21T04:38:31.006Z,59.40
2023-03-21T04:41:00.638Z,59.93
2023-03-21T04:43:28.792Z,58.75
2023-03-21T04:45:57.917Z,60.29
2023-03-21T04:48:26.198Z,59.51
2023-03-21T04:50:53.863Z,58.57
2023-03-21T04:53:21.287Z,58.52
2023-03-21T04:55:52.904Z,58.51
2023-03-21T04:58:21.932Z,58.68
2023-03-21T05:00:53.220Z,58.46
2023-03-21T05:03:21.928Z,58.46
2023-03-21T05:05:50.234Z,59.27
2023-03-21T05:08:19.181Z,59.36
2023-03-21T05:10:46.865Z,58.79
2023-03-21T05:13:14.844Z,58.66
2023-03-21T05:15:42.421Z,58.10
2023-03-21T05:18:13.111Z,58.62
2023-03-21T05:20:42.893Z,58.84
2023-03-21T05:23:11.912Z,58.84
2023-03-21T05:25:40.422Z,59.88
2023-03-21T05:28:09.172Z,58.96
2023-03-21T05:30:37.035Z,59.08
2023-03-21T05:33:05.090Z,57.77
2023-03-21T05:35:32.962Z,57.16
2023-03-21T05:38:00.542Z,58.67
2023-03-21T05:40:28.859Z,59.49
2023-03-21T05:42:58.425Z,59.23
2023-03-21T05:45:27.359Z,59.39
2023-03-21T05:47:54.958Z,58.60
2023-03-21T05:50:23.772Z,57.54
2023-03-21T05:52:52.279Z,58.21
2023-03-21T05:55:19.853Z,57.94
2023-03-21T05:57:47.711Z,57.04
2023-03-21T06:00:17.996Z,57.01
2023-03-21T06:02:54.050Z,57.44
2023-03-21T06:05:22.953Z,57.32
2023-03-21T06:07:52.399Z,57.64
2023-03-21T06:10:20.111Z,56.78
2023-03-21T06:12:48.023Z,55.49
2023-03-21T06:15:18.486Z,57.09
2023-03-21T06:17:46.049Z,56.13
2023-03-21T06:20:13.791Z,56.36
2023-03-21T06:22:42.207Z,58.01
2023-03-21T06:25:09.868Z,55.93
2023-03-21T06:27:37.914Z,57.22
2023-03-21T06:30:08.657Z,57.09
2023-03-21T06:32:40.875Z,56.29
2023-03-21T06:35:09.381Z,56.09
2023-03-21T06:37:38.527Z,57.00
2023-03-21T06:40:07.841Z,55.17
2023-03-21T06:42:36.368Z,55.62
2023-03-21T06:45:04.474Z,54.64
2023-03-21T06:47:32.045Z,56.68
2023-03-21T06:50:00.035Z,55.28
2023-03-21T06:52:27.865Z,56.02
2023-03-21T06:54:55.443Z,56.49
2023-03-21T06:57:23.234Z,58.35
2023-03-21T06:59:50.869Z,58.33
2023-03-21T07:02:18.532Z,58.65
2023-03-21T07:04:46.670Z,57.89
2023-03-21T07:07:14.414Z,57.55
2023-03-21T07:09:42.239Z,56.81
2023-03-21T07:12:10.583Z,56.52
2023-03-21T07:14:38.554Z,56.19
2023-03-21T07:17:05.974Z,56.48
2023-03-21T07:19:33.680Z,56.51
2023-03-21T07:22:01.547Z,55.30
2023-03-21T07:24:29.267Z,55.36
2023-03-21T07:26:57.026Z,56.23
2023-03-21T07:29:26.172Z,56.45
2023-03-21T07:31:55.555Z,55.03
2023-03-21T07:34:23.440Z,55.75
2023-03-21T07:36:50.891Z,55.43
2023-03-21T07:39:20.581Z,53.79
2023-03-21T07:41:48.283Z,55.47
2023-03-21T07:44:22.304Z,54.85
2023-03-21T07:46:53.972Z,53.30
2023-03-21T07:49:21.384Z,54.34
2023-03-21T07:51:48.800Z,54.03
2023-03-21T07:54:19.389Z,52.56
2023-03-21T07:56:46.780Z,52.76
2023-03-21T07:59:14.473Z,51.77
2023-03-21T08:01:42.129Z,52.53
2023-03-21T08:04:10.247Z,51.38
2023-03-21T08:06:37.696Z,49.83
2023-03-21T08:09:05.693Z,50.78
2023-03-21T08:11:33.680Z,50.26
2023-03-21T08:14:01.691Z,50.06
2023-03-21T08:16:29.221Z,49.49
2023-03-21T08:18:56.924Z,48.96
2023-03-21T08:21:24.335Z,48.90
2023-03-21T08:23:52.991Z,48.87
2023-03-21T08:26:21.425Z,46.37
2023-03-21T08:28:48.828Z,47.35
2023-03-21T08:31:18.293Z,47.07
2023-03-21T08:33:46.035Z,46.76
2023-03-21T08:36:13.480Z,45.67
2023-03-21T08:38:40.910Z,45.51
2023-03-21T08:41:08.605Z,46.30
2023-03-21T08:43:36.109Z,46.19
2023-03-21T08:46:04.336Z,45.89
2023-03-21T08:48:32.315Z,44.57
2023-03-21T08:51:02.812Z,44.93
2023-03-21T08:53:30.640Z,45.01
2023-03-21T08:55:58.397Z,45.23
2023-03-21T08:58:25.907Z,44.19
2023-03-21T09:00:53.306Z,45.11
2023-03-21T09:03:21.022Z,44.07
2023-03-21T09:05:48.455Z,44.73
2023-03-21T09:08:15.898Z,45.38
2023-03-21T09:10:43.632Z,45.69
2023-03-21T09:13:11.024Z,46.92
2023-03-21T09:15:39.111Z,45.74
2023-03-21T09:18:18.204Z,46.92
2023-03-21T09:20:46.732Z,45.29
2023-03-21T09:23:14.916Z,47.13
2023-03-21T09:25:43.014Z,46.61
2023-03-21T09:28:10.719Z,46.70
2023-03-21T09:30:38.468Z,45.44
2023-03-21T09:33:08.492Z,44.91
2023-03-21T09:35:36.323Z,44.64
2023-03-21T09:38:05.637Z,44.27
2023-03-21T09:40:36.022Z,43.52
2023-03-21T09:43:15.470Z,43.59
2023-03-21T09:46:10.130Z,43.67
2023-03-21T09:48:57.322Z,43.64
2023-03-21T09:51:28.469Z,44.13
2023-03-21T09:53:57.845Z,43.86
2023-03-21T09:56:26.240Z,45.15
2023-03-21T09:58:59.302Z,44.58
2023-03-21T10:01:30.110Z,42.67
2023-03-21T10:04:01.081Z,42.78
2023-03-21T10:06:30.674Z,41.35
2023-03-21T10:09:28.634Z,41.05
2023-03-21T10:12:00.929Z,40.78
2023-03-21T10:14:40.964Z,41.27
2023-03-21T10:17:33.874Z,41.34
2023-03-21T10:20:24.836Z,40.75
2023-03-21T10:22:54.884Z,39.03
2023-03-21T10:25:36.674Z,38.66
2023-03-21T10:28:07.046Z,38.37
2023-03-21T10:30:46.669Z,38.41
2023-03-21T10:33:21.629Z,37.42
2023-03-21T10:35:55.742Z,39.35
2023-03-21T10:38:25.411Z,37.83
2023-03-21T10:40:53.406Z,36.83
2023-03-21T10:43:26.980Z,36.53
2023-03-21T10:45:55.976Z,37.45
2023-03-21T10:48:24.427Z,37.95
2023-03-21T10:50:54.429Z,37.71
2023-03-21T10:53:27.943Z,37.00
2023-03-21T10:55:57.762Z,35.62
2023-03-21T10:58:36.062Z,34.69
2023-03-21T11:01:06.816Z,35.82
2023-03-21T11:03:43.682Z,35.50
2023-03-21T11:06:27.172Z,34.96
2023-03-21T11:08:57.762Z,34.16
2023-03-21T11:11:34.416Z,34.31
2023-03-21T11:14:07.219Z,35.08
2023-03-21T11:16:43.463Z,33.58
2023-03-21T11:19:39.204Z,33.81
2023-03-21T11:22:07.559Z,35.09
2023-03-21T11:24:35.958Z,35.34
2023-03-21T11:27:07.238Z,35.58
2023-03-21T11:29:40.528Z,34.21
2023-03-21T11:32:13.913Z,33.60
2023-03-21T11:34:50.650Z,35.61
2023-03-21T11:37:26.351Z,34.62
2023-03-21T11:40:14.201Z,34.85
2023-03-21T11:42:44.833Z,34.99
2023-03-21T11:45:12.805Z,33.23
2023-03-21T11:47:40.341Z,32.62
2023-03-21T11:50:33.899Z,34.65
2023-03-21T11:53:10.677Z,34.97
2023-03-21T11:56:28.702Z,33.77
2023-03-21T11:59:17.764Z,33.27
2023-03-21T12:01:52.581Z,30.93
2023-03-21T12:04:55.243Z,32.07
2023-03-21T12:07:30.666Z,32.86
2023-03-21T12:10:17.135Z,33.01
2023-03-21T12:12:47.797Z,33.79
2023-03-21T12:15:29.463Z,33.82
2023-03-21T12:18:06.623Z,33.98
2023-03-21T12:20:40.541Z,34.42
2023-03-21T12:23:23.161Z,34.40
2023-03-21T12:25:57.997Z,36.35
2023-03-21T12:28:33.230Z,36.83
2023-03-21T12:31:20.228Z,38.08
2023-03-21T12:33:56.967Z,37.60
2023-03-21T12:36:37.102Z,37.89
2023-03-21T12:39:11.360Z,37.60
2023-03-21T12:42:08.158Z,36.89
2023-03-21T12:44:46.078Z,36.37
2023-03-21T12:47:16.833Z,36.39
2023-03-21T12:49:54.020Z,36.11
2023-03-21T12:52:30.883Z,36.35
2023-03-21T12:55:18.055Z,36.43
2023-03-21T12:57:57.179Z,36.37
2023-03-21T13:00:46.912Z,36.63
2023-03-21T13:03:30.552Z,35.74
2023-03-21T13:06:06.533Z,36.27
2023-03-21T13:08:34.209Z,36.67
2023-03-21T13:11:02.084Z,35.69
2023-03-21T13:13:49.582Z,35.89
2023-03-21T13:16:37.212Z,34.73
2023-03-21T13:19:23.222Z,34.82
2023-03-21T13:21:51.156Z,34.86
2023-03-21T13:24:20.185Z,35.91
2023-03-21T13:27:16.601Z,35.87
2023-03-21T13:29:49.723Z,34.69
2023-03-21T13:32:20.465Z,35.25
2023-03-21T13:34:55.942Z,34.09
2023-03-21T13:37:25.842Z,34.42
2023-03-21T13:39:53.983Z,34.41
2023-03-21T13:42:31.800Z,33.56
2023-03-21T13:45:02.465Z,34.75
2023-03-21T13:47:36.337Z,33.73
2023-03-21T13:50:19.431Z,33.84
2023-03-21T13:53:02.169Z,34.22
2023-03-21T13:55:36.547Z,34.51
2023-03-21T13:58:37.931Z,34.47
2023-03-21T14:01:28.873Z,32.49
2023-03-21T14:03:59.566Z,30.71
2023-03-21T14:06:34.080Z,30.98
2023-03-21T14:09:03.403Z,30.28
2023-03-21T14:11:32.891Z,31.09
2023-03-21T14:14:01.529Z,31.91
2023-03-21T14:16:29.936Z,33.38
2023-03-21T14:19:02.323Z,33.62
2023-03-21T14:21:32.673Z,33.87
2023-03-21T14:24:12.470Z,33.07
2023-03-21T14:26:46.374Z,32.78
2023-03-21T14:29:26.113Z,32.04
2023-03-21T14:31:56.362Z,31.74
2023-03-21T14:34:26.194Z,32.30
2023-03-21T14:36:58.648Z,32.14
2023-03-21T14:39:31.582Z,32.79
2023-03-21T14:42:12.211Z,32.34
2023-03-21T14:44:55.327Z,32.44
2023-03-21T14:47:27.437Z,33.55
2023-03-21T14:49:55.285Z,33.41
2023-03-21T14:52:34.199Z,33.88
2023-03-21T14:55:05.925Z,33.40
2023-03-21T14:57:33.449Z,33.50
2023-03-21T15:00:13.402Z,33.01
2023-03-21T15:02:46.448Z,32.63
2023-03-21T15:05:19.823Z,34.01
2023-03-21T15:07:59.119Z,33.96
2023-03-21T15:10:29.102Z,33.76
2023-03-21T15:12:59.041Z,33.94
2023-03-21T15:15:28.361Z,33.74
2023-03-21T15:18:00.722Z,34.03
2023-03-21T15:20:31.616Z,33.53
2023-03-21T15:23:03.622Z,33.61
2023-03-21T15:25:34.430Z,33.47
2023-03-21T15:28:02.234Z,34.29
2023-03-21T15:30:31.866Z,34.32
2023-03-21T15:33:06.405Z,34.47
2023-03-21T15:35:43.847Z,35.86
2023-03-21T15:38:33.629Z,34.99
2023-03-21T15:41:37.621Z,35.38
2023-03-21T15:44:13.580Z,35.95
2023-03-21T15:46:50.899Z,36.16
2023-03-21T15:49:30.331Z,36.25
2023-03-21T15:52:10.015Z,35.90
2023-03-21T15:54:55.814Z,34.98
2023-03-21T15:57:25.343Z,35.90
2023-03-21T16:00:21.163Z,35.61
2023-03-21T16:02:54.882Z,36.23
2023-03-21T16:05:22.645Z,35.92
2023-03-21T16:07:51.271Z,35.89
2023-03-21T16:10:49.082Z,35.70
2023-03-21T16:13:17.607Z,36.47
2023-03-21T16:15:46.916Z,37.09
2023-03-21T16:18:19.535Z,37.06
2023-03-21T16:20:49.148Z,36.96
2023-03-21T16:23:16.586Z,36.79
2023-03-21T16:25:44.281Z,37.03
2023-03-21T16:28:16.564Z,36.96
2023-03-21T16:30:44.530Z,37.39
2023-03-21T16:33:13.468Z,37.03
2023-03-21T16:35:41.472Z,37.88
2023-03-21T16:38:10.640Z,37.45
2023-03-21T16:40:41.948Z,37.33
2023-03-21T16:43:10.838Z,36.97
2023-03-21T16:45:38.900Z,37.36
2023-03-21T16:48:09.039Z,36.90
2023-03-21T16:50:41.268Z,37.40
2023-03-21T16:53:09.603Z,37.10
2023-03-21T16:55:37.590Z,37.20
2023-03-21T16:58:06.477Z,38.10
2023-03-21T17:00:34.865Z,38.54
2023-03-21T17:03:13.267Z,38.60
2023-03-21T17:05:41.462Z,39.08
2023-03-21T17:08:14.902Z,39.26
2023-03-21T17:10:44.043Z,39.95
2023-03-21T17:13:12.154Z,40.19
2023-03-21T17:15:42.177Z,39.55
2023-03-21T17:18:10.716Z,39.68
2023-03-21T17:20:40.286Z,39.73
2023-03-21T17:23:08.465Z,40.81
2023-03-21T17:25:36.209Z,40.13
2023-03-21T17:28:04.130Z,40.25
2023-03-21T17:30:34.891Z,40.55
2023-03-21T17:33:02.818Z,40.42
2023-03-21T17:35:30.457Z,41.14
2023-03-21T17:37:59.085Z,41.31
2023-03-21T17:40:30.378Z,41.11
2023-03-21T17:42:59.462Z,41.76
2023-03-21T17:45:34.064Z,41.76
2023-03-21T17:48:02.068Z,41.23
2023-03-21T17:50:34.824Z,42.13
2023-03-21T17:53:05.995Z,42.19
2023-03-21T17:55:35.276Z,42.08
2023-03-21T17:58:06.544Z,42.73
2023-03-21T18:00:36.103Z,43.14
2023-03-21T18:03:07.228Z,42.70
2023-03-21T18:05:34.955Z,42.32
2023-03-21T18:08:12.104Z,43.22
2023-03-21T18:10:42.153Z,43.23
2023-03-21T18:13:10.267Z,43.07
2023-03-21T18:15:44.799Z,42.99
2023-03-21T18:18:14.749Z,42.99
2023-03-21T18:20:53.432Z,43.32
2023-03-21T18:23:24.503Z,43.64
2023-03-21T18:25:53.111Z,44.06
2023-03-21T18:28:25.380Z,44.29
2023-03-21T18:31:08.495Z,44.74
2023-03-21T18:33:40.697Z,44.79
2023-03-21T18:36:11.047Z,44.42
2023-03-21T18:38:41.409Z,45.95
2023-03-21T18:41:10.706Z,45.16
2023-03-21T18:44:05.267Z,45.91
2023-03-21T18:46:34.566Z,45.81
2023-03-21T18:49:42.266Z,45.43
2023-03-21T18:51:53.168Z,45.82
2023-03-21T18:54:22.389Z,45.02
2023-03-21T18:59:41.607Z,45.75
2023-03-21T19:02:18.859Z,46.45
2023-03-21T19:04:52.028Z,45.40
2023-03-21T19:07:22.178Z,46.38
2023-03-21T19:10:15.368Z,45.83
2023-03-21T19:12:44.171Z,45.53
2023-03-21T19:15:19.989Z,45.81
2023-03-21T19:20:45.672Z,45.58
2023-03-21T19:23:17.724Z,45.79
2023-03-21T19:25:49.778Z,46.38
2023-03-21T19:28:18.119Z,46.58
2023-03-21T19:30:50.225Z,46.78
2023-03-21T19:33:21.822Z,46.28
2023-03-21T19:36:10.648Z,46.50
2023-03-21T19:38:41.620Z,46.67
2023-03-21T19:41:10.359Z,46.65
2023-03-21T19:43:40.253Z,47.04
2023-03-21T19:46:14.776Z,47.29
2023-03-21T19:48:44.821Z,47.11
2023-03-21T19:51:27.356Z,47.30
2023-03-21T19:53:59.724Z,47.43
2023-03-21T19:56:31.631Z,47.54
2023-03-21T19:59:06.093Z,47.82
2023-03-21T20:01:36.132Z,47.44
2023-03-21T20:04:06.664Z,47.89
2023-03-21T20:06:39.072Z,47.17
2023-03-21T20:12:06.700Z,47.71
2023-03-21T20:14:36.142Z,47.25
2023-03-21T20:17:05.031Z,47.43
2023-03-21T20:19:37.104Z,47.61
2023-03-21T20:22:20.138Z,48.01
2023-03-21T20:24:57.874Z,48.22
2023-03-21T20:27:26.304Z,47.91
2023-03-21T20:30:10.779Z,48.38
2023-03-21T20:32:42.602Z,48.57
2023-03-21T20:35:47.908Z,48.17
2023-03-21T20:38:10.265Z,48.20
2023-03-21T20:40:39.456Z,48.58
2023-03-21T20:43:55.648Z,48.04
2023-03-21T20:46:03.560Z,47.95
2023-03-21T20:48:33.274Z,48.87
2023-03-21T20:51:39.257Z,49.05
2023-03-21T20:53:55.786Z,48.59
2023-03-21T20:56:26.207Z,49.08
2023-03-21T20:59:14.542Z,49.89
2023-03-21T21:01:51.759Z,50.33
2023-03-21T21:04:41.172Z,50.89
2023-03-21T21:07:17.770Z,50.63
2023-03-21T21:09:47.306Z,49.85
2023-03-21T21:12:19.607Z,50.54
2023-03-21T21:14:49.624Z,50.59
2023-03-21T21:18:01.970Z,50.83
2023-03-21T21:20:17.748Z,50.70
2023-03-21T21:22:58.525Z,51.26
2023-03-21T21:25:27.621Z,50.84
2023-03-21T21:27:56.788Z,50.67
2023-03-21T21:30:24.798Z,50.93
2023-03-21T21:32:52.752Z,50.99
2023-03-21T21:35:22.614Z,51.73
2023-03-21T21:37:51.641Z,51.56
2023-03-21T21:40:20.827Z,51.42
2023-03-21T21:42:49.018Z,51.25
2023-03-21T21:45:18.314Z,51.77
2023-03-21T21:47:46.504Z,50.87
2023-03-21T21:50:14.563Z,51.89
2023-03-21T21:52:43.989Z,51.97
2023-03-21T21:55:14.307Z,52.83
2023-03-21T21:57:43.223Z,51.78
2023-03-21T22:00:13.579Z,52.06
2023-03-21T22:02:42.477Z,52.34
2023-03-21T22:05:10.568Z,52.26
2023-03-21T22:07:38.119Z,51.70
2023-03-21T22:10:06.874Z,51.09
2023-03-21T22:12:34.507Z,51.21
2023-03-21T22:15:02.838Z,51.60
2023-03-21T22:17:31.104Z,52.29
2023-03-21T22:20:06.000Z,52.21
2023-03-21T22:22:34.932Z,52.06
2023-03-21T22:25:03.635Z,52.06
2023-03-21T22:27:32.079Z,51.85
2023-03-21T22:30:04.477Z,52.32
2023-03-21T22:32:37.659Z,52.04
2023-03-21T22:35:07.203Z,52.08
2023-03-21T22:37:36.513Z,52.24
2023-03-21T22:40:08.650Z,53.21
2023-03-21T22:42:37.376Z,52.90
2023-03-21T22:45:06.160Z,52.83
2023-03-21T22:47:34.042Z,52.95
2023-03-21T22:50:02.457Z,51.99
2023-03-21T22:52:29.984Z,51.96
2023-03-21T22:54:57.383Z,51.91
2023-03-21T22:57:25.600Z,52.48
2023-03-21T22:59:53.036Z,52.58
2023-03-21T23:02:20.687Z,53.06
2023-03-21T23:04:48.476Z,52.59
2023-03-21T23:07:16.714Z,53.34
2023-03-21T23:09:44.310Z,53.37
2023-03-21T23:12:12.364Z,53.27
2023-03-21T23:14:39.840Z,53.13
2023-03-21T23:17:07.257Z,52.45
2023-03-21T23:19:34.944Z,52.75
2023-03-21T23:22:02.334Z,53.25
2023-03-21T23:24:29.902Z,53.00
2023-03-21T23:26:57.628Z,53.04
2023-03-21T23:29:25.254Z,53.41
2023-03-21T23:31:52.880Z,53.43
2023-03-21T23:34:21.198Z,53.01
2023-03-21T23:36:48.798Z,52.58
2023-03-21T23:39:18.615Z,51.74
2023-03-21T23:41:46.593Z,51.23
2023-03-21T23:44:15.298Z,50.95
2023-03-21T23:46:42.917Z,51.46
2023-03-21T23:49:10.678Z,50.62
2023-03-21T23:51:38.142Z,50.80
2023-03-21T23:54:06.123Z,51.77
2023-03-21T23:56:34.316Z,51.71
2023-03-21T23:59:01.875Z,51.28
